sensor_id;sensor_type;location;lat;lon;timestamp;P1;durP1;ratioP1;P2;durP2;ratioP2
80748;SDS011;70145;53.746;9.970;2023-08-06T00:01:35;2.07;;;1.40;;
80748;SDS011;70145;53.746;9.970;2023-08-06T00:04:00;1.70;;;1.30;;
80748;SDS011;70145;53.746;9.970;2023-08-06T00:06:26;2.58;;;1.33;;
80748;SDS011;70145;53.746;9.970;2023-08-06T00:08:51;1.25;;;0.95;;
80748;SDS011;70145;53.746;9.970;2023-08-06T00:11:16;1.97;;;0.97;;
80748;SDS011;70145;53.746;9.970;2023-08-06T00:13:42;2.07;;;1.10;;
80748;SDS011;70145;53.746;9.970;2023-08-06T00:16:13;2.05;;;1.00;;
80748;SDS011;70145;53.746;9.970;2023-08-06T00:18:39;1.48;;;1.17;;
80748;SDS011;70145;53.746;9.970;2023-08-06T00:21:05;1.75;;;1.40;;
80748;SDS011;70145;53.746;9.970;2023-08-06T00:23:30;2.70;;;1.25;;
80748;SDS011;70145;53.746;9.970;2023-08-06T00:25:55;1.33;;;1.23;;
80748;SDS011;70145;53.746;9.970;2023-08-06T00:28:21;1.92;;;1.00;;
80748;SDS011;70145;53.746;9.970;2023-08-06T00:30:46;1.53;;;1.40;;
80748;SDS011;70145;53.746;9.970;2023-08-06T00:33:17;1.67;;;1.27;;
80748;SDS011;70145;53.746;9.970;2023-08-06T00:35:42;1.87;;;1.40;;
80748;SDS011;70145;53.746;9.970;2023-08-06T00:38:08;2.63;;;1.60;;
80748;SDS011;70145;53.746;9.970;2023-08-06T00:40:33;2.50;;;1.70;;
80748;SDS011;70145;53.746;9.970;2023-08-06T00:42:58;2.50;;;1.33;;
80748;SDS011;70145;53.746;9.970;2023-08-06T00:45:24;2.30;;;1.60;;
80748;SDS011;70145;53.746;9.970;2023-08-06T00:47:50;2.38;;;1.40;;
80748;SDS011;70145;53.746;9.970;2023-08-06T00:50:15;2.03;;;1.65;;
80748;SDS011;70145;53.746;9.970;2023-08-06T00:52:41;2.08;;;1.35;;
80748;SDS011;70145;53.746;9.970;2023-08-06T00:55:06;2.50;;;1.20;;
80748;SDS011;70145;53.746;9.970;2023-08-06T00:57:32;1.52;;;1.27;;
80748;SDS011;70145;53.746;9.970;2023-08-06T00:59:57;2.47;;;2.28;;
80748;SDS011;70145;53.746;9.970;2023-08-06T01:02:23;2.72;;;1.33;;
80748;SDS011;70145;53.746;9.970;2023-08-06T01:04:48;2.97;;;1.80;;
80748;SDS011;70145;53.746;9.970;2023-08-06T01:07:18;2.13;;;1.50;;
80748;SDS011;70145;53.746;9.970;2023-08-06T01:09:50;1.98;;;1.75;;
80748;SDS011;70145;53.746;9.970;2023-08-06T01:17:36;1.25;;;1.13;;
80748;SDS011;70145;53.746;9.970;2023-08-06T01:20:02;1.80;;;1.42;;
80748;SDS011;70145;53.746;9.970;2023-08-06T01:22:27;1.83;;;1.23;;
80748;SDS011;70145;53.746;9.970;2023-08-06T01:24:52;2.83;;;1.60;;
80748;SDS011;70145;53.746;9.970;2023-08-06T01:32:31;2.63;;;1.73;;
80748;SDS011;70145;53.746;9.970;2023-08-06T01:35:00;2.10;;;1.50;;
80748;SDS011;70145;53.746;9.970;2023-08-06T01:37:27;2.08;;;1.90;;
80748;SDS011;70145;53.746;9.970;2023-08-06T01:39:53;2.97;;;2.05;;
80748;SDS011;70145;53.746;9.970;2023-08-06T01:42:18;1.77;;;1.57;;
80748;SDS011;70145;53.746;9.970;2023-08-06T01:44:44;2.67;;;1.90;;
80748;SDS011;70145;53.746;9.970;2023-08-06T01:47:09;2.20;;;1.85;;
80748;SDS011;70145;53.746;9.970;2023-08-06T01:49:34;2.00;;;1.63;;
80748;SDS011;70145;53.746;9.970;2023-08-06T01:52:00;2.67;;;2.40;;
80748;SDS011;70145;53.746;9.970;2023-08-06T01:54:25;2.22;;;2.00;;
80748;SDS011;70145;53.746;9.970;2023-08-06T01:56:51;2.75;;;1.75;;
80748;SDS011;70145;53.746;9.970;2023-08-06T01:59:16;2.58;;;1.90;;
80748;SDS011;70145;53.746;9.970;2023-08-06T02:01:41;3.10;;;1.80;;
80748;SDS011;70145;53.746;9.970;2023-08-06T02:04:06;2.97;;;1.70;;
80748;SDS011;70145;53.746;9.970;2023-08-06T02:06:32;3.50;;;1.53;;
80748;SDS011;70145;53.746;9.970;2023-08-06T02:08:57;2.17;;;1.73;;
80748;SDS011;70145;53.746;9.970;2023-08-06T02:11:22;2.72;;;2.00;;
80748;SDS011;70145;53.746;9.970;2023-08-06T02:13:48;2.03;;;1.70;;
80748;SDS011;70145;53.746;9.970;2023-08-06T02:16:13;2.93;;;2.10;;
80748;SDS011;70145;53.746;9.970;2023-08-06T02:18:38;4.00;;;2.05;;
80748;SDS011;70145;53.746;9.970;2023-08-06T02:21:03;4.00;;;1.70;;
80748;SDS011;70145;53.746;9.970;2023-08-06T02:23:29;2.87;;;1.80;;
80748;SDS011;70145;53.746;9.970;2023-08-06T02:25:58;2.80;;;2.03;;
80748;SDS011;70145;53.746;9.970;2023-08-06T02:28:24;2.97;;;2.13;;
80748;SDS011;70145;53.746;9.970;2023-08-06T02:30:50;2.83;;;2.08;;
80748;SDS011;70145;53.746;9.970;2023-08-06T02:33:16;2.28;;;1.52;;
80748;SDS011;70145;53.746;9.970;2023-08-06T02:35:41;2.87;;;2.47;;
80748;SDS011;70145;53.746;9.970;2023-08-06T02:38:06;3.10;;;2.43;;
80748;SDS011;70145;53.746;9.970;2023-08-06T02:40:32;2.28;;;1.58;;
80748;SDS011;70145;53.746;9.970;2023-08-06T02:42:57;3.20;;;1.97;;
80748;SDS011;70145;53.746;9.970;2023-08-06T02:45:22;3.03;;;1.93;;
80748;SDS011;70145;53.746;9.970;2023-08-06T02:47:48;2.03;;;1.73;;
80748;SDS011;70145;53.746;9.970;2023-08-06T02:50:13;2.78;;;1.50;;
80748;SDS011;70145;53.746;9.970;2023-08-06T02:52:38;3.05;;;1.88;;
80748;SDS011;70145;53.746;9.970;2023-08-06T02:55:05;4.10;;;1.92;;
80748;SDS011;70145;53.746;9.970;2023-08-06T02:57:31;2.40;;;1.70;;
80748;SDS011;70145;53.746;9.970;2023-08-06T02:59:56;1.85;;;1.50;;
80748;SDS011;70145;53.746;9.970;2023-08-06T03:02:21;2.67;;;2.07;;
80748;SDS011;70145;53.746;9.970;2023-08-06T03:04:47;2.67;;;1.90;;
80748;SDS011;70145;53.746;9.970;2023-08-06T03:07:12;2.57;;;2.10;;
80748;SDS011;70145;53.746;9.970;2023-08-06T03:09:37;3.23;;;1.90;;
80748;SDS011;70145;53.746;9.970;2023-08-06T03:12:03;2.70;;;1.80;;
80748;SDS011;70145;53.746;9.970;2023-08-06T03:14:28;2.63;;;2.08;;
80748;SDS011;70145;53.746;9.970;2023-08-06T03:16:53;3.97;;;2.10;;
80748;SDS011;70145;53.746;9.970;2023-08-06T03:19:19;4.47;;;1.63;;
80748;SDS011;70145;53.746;9.970;2023-08-06T03:21:44;3.53;;;1.97;;
80748;SDS011;70145;53.746;9.970;2023-08-06T03:24:09;3.57;;;2.43;;
80748;SDS011;70145;53.746;9.970;2023-08-06T03:26:34;3.27;;;2.80;;
80748;SDS011;70145;53.746;9.970;2023-08-06T03:29:00;3.33;;;2.25;;
80748;SDS011;70145;53.746;9.970;2023-08-06T03:31:25;2.03;;;1.73;;
80748;SDS011;70145;53.746;9.970;2023-08-06T03:33:50;3.17;;;2.23;;
80748;SDS011;70145;53.746;9.970;2023-08-06T03:36:15;7.00;;;2.60;;
80748;SDS011;70145;53.746;9.970;2023-08-06T03:38:41;4.35;;;1.73;;
80748;SDS011;70145;53.746;9.970;2023-08-06T03:41:06;2.83;;;2.60;;
80748;SDS011;70145;53.746;9.970;2023-08-06T03:43:31;2.67;;;2.10;;
80748;SDS011;70145;53.746;9.970;2023-08-06T03:45:57;3.40;;;2.05;;
80748;SDS011;70145;53.746;9.970;2023-08-06T03:48:22;2.97;;;2.13;;
80748;SDS011;70145;53.746;9.970;2023-08-06T03:50:47;3.17;;;2.00;;
80748;SDS011;70145;53.746;9.970;2023-08-06T03:53:12;3.63;;;1.97;;
80748;SDS011;70145;53.746;9.970;2023-08-06T03:55:38;3.17;;;1.70;;
80748;SDS011;70145;53.746;9.970;2023-08-06T03:58:03;4.30;;;2.03;;
80748;SDS011;70145;53.746;9.970;2023-08-06T04:00:28;2.53;;;1.57;;
80748;SDS011;70145;53.746;9.970;2023-08-06T04:02:53;3.20;;;1.87;;
80748;SDS011;70145;53.746;9.970;2023-08-06T04:05:19;4.57;;;2.47;;
80748;SDS011;70145;53.746;9.970;2023-08-06T04:07:44;3.77;;;2.17;;
80748;SDS011;70145;53.746;9.970;2023-08-06T04:10:09;3.20;;;2.10;;
80748;SDS011;70145;53.746;9.970;2023-08-06T04:12:35;3.60;;;2.20;;
80748;SDS011;70145;53.746;9.970;2023-08-06T04:15:03;3.28;;;2.13;;
80748;SDS011;70145;53.746;9.970;2023-08-06T04:17:28;5.95;;;2.25;;
80748;SDS011;70145;53.746;9.970;2023-08-06T04:19:54;3.03;;;2.13;;
80748;SDS011;70145;53.746;9.970;2023-08-06T04:22:20;2.88;;;1.95;;
80748;SDS011;70145;53.746;9.970;2023-08-06T04:24:46;2.75;;;1.77;;
80748;SDS011;70145;53.746;9.970;2023-08-06T04:27:12;3.22;;;1.90;;
80748;SDS011;70145;53.746;9.970;2023-08-06T04:29:39;4.45;;;1.98;;
80748;SDS011;70145;53.746;9.970;2023-08-06T04:32:06;3.83;;;2.15;;
80748;SDS011;70145;53.746;9.970;2023-08-06T04:34:32;3.25;;;2.00;;
80748;SDS011;70145;53.746;9.970;2023-08-06T04:36:58;3.75;;;2.28;;
80748;SDS011;70145;53.746;9.970;2023-08-06T04:39:24;3.17;;;1.95;;
80748;SDS011;70145;53.746;9.970;2023-08-06T04:41:50;2.40;;;2.13;;
80748;SDS011;70145;53.746;9.970;2023-08-06T04:44:15;2.17;;;1.70;;
80748;SDS011;70145;53.746;9.970;2023-08-06T04:46:40;4.03;;;2.30;;
80748;SDS011;70145;53.746;9.970;2023-08-06T04:49:06;4.00;;;1.97;;
80748;SDS011;70145;53.746;9.970;2023-08-06T04:51:31;2.95;;;2.35;;
80748;SDS011;70145;53.746;9.970;2023-08-06T04:53:56;3.97;;;2.00;;
80748;SDS011;70145;53.746;9.970;2023-08-06T04:56:22;3.75;;;1.88;;
80748;SDS011;70145;53.746;9.970;2023-08-06T04:58:48;3.80;;;2.22;;
80748;SDS011;70145;53.746;9.970;2023-08-06T05:01:13;3.58;;;2.03;;
80748;SDS011;70145;53.746;9.970;2023-08-06T05:03:38;4.13;;;2.10;;
80748;SDS011;70145;53.746;9.970;2023-08-06T05:06:04;2.75;;;2.10;;
80748;SDS011;70145;53.746;9.970;2023-08-06T05:08:29;5.07;;;2.10;;
80748;SDS011;70145;53.746;9.970;2023-08-06T05:10:54;4.23;;;2.10;;
80748;SDS011;70145;53.746;9.970;2023-08-06T05:13:20;2.83;;;1.92;;
80748;SDS011;70145;53.746;9.970;2023-08-06T05:15:45;4.60;;;2.40;;
80748;SDS011;70145;53.746;9.970;2023-08-06T05:18:11;3.47;;;2.20;;
80748;SDS011;70145;53.746;9.970;2023-08-06T05:20:37;3.20;;;1.95;;
80748;SDS011;70145;53.746;9.970;2023-08-06T05:23:03;3.45;;;1.80;;
80748;SDS011;70145;53.746;9.970;2023-08-06T05:25:29;3.85;;;2.03;;
80748;SDS011;70145;53.746;9.970;2023-08-06T05:27:54;3.28;;;1.83;;
80748;SDS011;70145;53.746;9.970;2023-08-06T05:30:21;4.85;;;2.00;;
80748;SDS011;70145;53.746;9.970;2023-08-06T05:32:46;3.17;;;2.77;;
80748;SDS011;70145;53.746;9.970;2023-08-06T05:35:12;3.78;;;2.17;;
80748;SDS011;70145;53.746;9.970;2023-08-06T05:37:37;3.27;;;2.27;;
80748;SDS011;70145;53.746;9.970;2023-08-06T05:40:02;4.70;;;2.33;;
80748;SDS011;70145;53.746;9.970;2023-08-06T05:42:29;2.40;;;2.10;;
80748;SDS011;70145;53.746;9.970;2023-08-06T05:44:54;3.63;;;2.28;;
80748;SDS011;70145;53.746;9.970;2023-08-06T05:47:19;3.57;;;1.90;;
80748;SDS011;70145;53.746;9.970;2023-08-06T05:49:45;4.30;;;2.13;;
80748;SDS011;70145;53.746;9.970;2023-08-06T05:52:10;3.05;;;2.30;;
80748;SDS011;70145;53.746;9.970;2023-08-06T05:54:36;5.05;;;2.30;;
80748;SDS011;70145;53.746;9.970;2023-08-06T05:57:01;2.97;;;2.03;;
80748;SDS011;70145;53.746;9.970;2023-08-06T05:59:27;3.28;;;2.33;;
80748;SDS011;70145;53.746;9.970;2023-08-06T06:01:52;3.80;;;2.87;;
80748;SDS011;70145;53.746;9.970;2023-08-06T06:04:17;3.03;;;2.47;;
80748;SDS011;70145;53.746;9.970;2023-08-06T06:06:42;3.30;;;2.73;;
80748;SDS011;70145;53.746;9.970;2023-08-06T06:09:08;2.92;;;2.15;;
80748;SDS011;70145;53.746;9.970;2023-08-06T06:11:33;3.40;;;2.50;;
80748;SDS011;70145;53.746;9.970;2023-08-06T06:13:58;5.07;;;2.60;;
80748;SDS011;70145;53.746;9.970;2023-08-06T06:16:24;4.15;;;2.83;;
80748;SDS011;70145;53.746;9.970;2023-08-06T06:18:49;2.67;;;1.80;;
80748;SDS011;70145;53.746;9.970;2023-08-06T06:21:14;4.68;;;2.70;;
80748;SDS011;70145;53.746;9.970;2023-08-06T06:23:40;3.58;;;2.30;;
80748;SDS011;70145;53.746;9.970;2023-08-06T06:26:05;3.20;;;2.03;;
80748;SDS011;70145;53.746;9.970;2023-08-06T06:28:30;3.33;;;2.43;;
80748;SDS011;70145;53.746;9.970;2023-08-06T06:31:01;2.83;;;2.57;;
80748;SDS011;70145;53.746;9.970;2023-08-06T06:33:27;4.00;;;2.42;;
80748;SDS011;70145;53.746;9.970;2023-08-06T06:35:53;4.07;;;2.40;;
80748;SDS011;70145;53.746;9.970;2023-08-06T06:38:18;3.40;;;2.27;;
80748;SDS011;70145;53.746;9.970;2023-08-06T06:40:43;4.28;;;3.10;;
80748;SDS011;70145;53.746;9.970;2023-08-06T06:43:08;3.93;;;3.13;;
80748;SDS011;70145;53.746;9.970;2023-08-06T06:45:34;3.87;;;2.63;;
80748;SDS011;70145;53.746;9.970;2023-08-06T06:47:59;5.70;;;3.63;;
80748;SDS011;70145;53.746;9.970;2023-08-06T06:50:24;4.50;;;2.57;;
80748;SDS011;70145;53.746;9.970;2023-08-06T06:52:51;5.00;;;2.83;;
80748;SDS011;70145;53.746;9.970;2023-08-06T06:55:16;3.58;;;2.53;;
80748;SDS011;70145;53.746;9.970;2023-08-06T06:57:41;4.10;;;2.55;;
80748;SDS011;70145;53.746;9.970;2023-08-06T07:00:07;6.82;;;2.83;;
80748;SDS011;70145;53.746;9.970;2023-08-06T07:02:33;5.82;;;2.92;;
80748;SDS011;70145;53.746;9.970;2023-08-06T07:04:58;4.17;;;3.00;;
80748;SDS011;70145;53.746;9.970;2023-08-06T07:07:23;7.23;;;3.17;;
80748;SDS011;70145;53.746;9.970;2023-08-06T07:09:48;4.50;;;2.60;;
80748;SDS011;70145;53.746;9.970;2023-08-06T07:12:14;3.05;;;2.60;;
80748;SDS011;70145;53.746;9.970;2023-08-06T07:14:39;4.70;;;3.10;;
80748;SDS011;70145;53.746;9.970;2023-08-06T07:17:05;5.07;;;2.70;;
80748;SDS011;70145;53.746;9.970;2023-08-06T07:19:30;6.03;;;2.60;;
80748;SDS011;70145;53.746;9.970;2023-08-06T07:21:55;4.15;;;2.65;;
80748;SDS011;70145;53.746;9.970;2023-08-06T07:24:21;2.93;;;2.63;;
80748;SDS011;70145;53.746;9.970;2023-08-06T07:26:46;4.30;;;2.97;;
80748;SDS011;70145;53.746;9.970;2023-08-06T07:29:12;3.90;;;2.83;;
80748;SDS011;70145;53.746;9.970;2023-08-06T07:31:37;5.07;;;2.63;;
80748;SDS011;70145;53.746;9.970;2023-08-06T07:34:02;3.58;;;2.60;;
80748;SDS011;70145;53.746;9.970;2023-08-06T07:36:28;4.27;;;3.20;;
80748;SDS011;70145;53.746;9.970;2023-08-06T07:38:53;7.03;;;3.22;;
80748;SDS011;70145;53.746;9.970;2023-08-06T07:41:22;3.42;;;2.60;;
80748;SDS011;70145;53.746;9.970;2023-08-06T07:43:48;3.78;;;3.17;;
80748;SDS011;70145;53.746;9.970;2023-08-06T07:46:13;5.90;;;3.17;;
80748;SDS011;70145;53.746;9.970;2023-08-06T07:48:39;2.92;;;2.03;;
80748;SDS011;70145;53.746;9.970;2023-08-06T07:51:04;4.60;;;2.40;;
80748;SDS011;70145;53.746;9.970;2023-08-06T07:53:30;3.75;;;2.83;;
80748;SDS011;70145;53.746;9.970;2023-08-06T07:55:55;3.03;;;2.50;;
80748;SDS011;70145;53.746;9.970;2023-08-06T07:58:21;5.45;;;3.30;;
80748;SDS011;70145;53.746;9.970;2023-08-06T08:00:48;5.15;;;3.00;;
80748;SDS011;70145;53.746;9.970;2023-08-06T08:03:14;5.50;;;3.10;;
80748;SDS011;70145;53.746;9.970;2023-08-06T08:05:40;3.58;;;2.90;;
80748;SDS011;70145;53.746;9.970;2023-08-06T08:08:06;4.35;;;2.85;;
80748;SDS011;70145;53.746;9.970;2023-08-06T08:10:32;6.25;;;3.60;;
80748;SDS011;70145;53.746;9.970;2023-08-06T08:12:58;3.55;;;2.80;;
80748;SDS011;70145;53.746;9.970;2023-08-06T08:15:24;4.07;;;2.90;;
80748;SDS011;70145;53.746;9.970;2023-08-06T08:17:51;4.20;;;3.00;;
80748;SDS011;70145;53.746;9.970;2023-08-06T08:20:17;3.15;;;2.42;;
80748;SDS011;70145;53.746;9.970;2023-08-06T08:22:42;3.90;;;2.78;;
80748;SDS011;70145;53.746;9.970;2023-08-06T08:25:08;4.23;;;3.10;;
80748;SDS011;70145;53.746;9.970;2023-08-06T08:27:33;5.00;;;3.13;;
80748;SDS011;70145;53.746;9.970;2023-08-06T08:29:58;5.83;;;3.30;;
80748;SDS011;70145;53.746;9.970;2023-08-06T08:32:23;5.57;;;3.00;;
80748;SDS011;70145;53.746;9.970;2023-08-06T08:34:49;5.30;;;2.90;;
80748;SDS011;70145;53.746;9.970;2023-08-06T08:37:14;6.00;;;3.27;;
80748;SDS011;70145;53.746;9.970;2023-08-06T08:39:39;6.10;;;3.57;;
80748;SDS011;70145;53.746;9.970;2023-08-06T08:42:05;4.87;;;3.17;;
80748;SDS011;70145;53.746;9.970;2023-08-06T08:44:32;6.43;;;3.60;;
80748;SDS011;70145;53.746;9.970;2023-08-06T08:46:59;4.70;;;3.65;;
80748;SDS011;70145;53.746;9.970;2023-08-06T08:49:24;5.05;;;4.15;;
80748;SDS011;70145;53.746;9.970;2023-08-06T08:51:52;5.38;;;4.78;;
80748;SDS011;70145;53.746;9.970;2023-08-06T08:54:20;6.63;;;3.53;;
80748;SDS011;70145;53.746;9.970;2023-08-06T08:56:48;5.40;;;4.28;;
80748;SDS011;70145;53.746;9.970;2023-08-06T08:59:13;4.60;;;3.70;;
80748;SDS011;70145;53.746;9.970;2023-08-06T09:01:38;5.60;;;3.78;;
80748;SDS011;70145;53.746;9.970;2023-08-06T09:04:05;8.65;;;4.85;;
80748;SDS011;70145;53.746;9.970;2023-08-06T09:06:32;5.18;;;4.20;;
80748;SDS011;70145;53.746;9.970;2023-08-06T09:09:01;7.07;;;5.38;;
80748;SDS011;70145;53.746;9.970;2023-08-06T09:11:34;6.28;;;4.75;;
80748;SDS011;70145;53.746;9.970;2023-08-06T09:14:04;5.20;;;3.92;;
80748;SDS011;70145;53.746;9.970;2023-08-06T09:16:37;6.32;;;4.65;;
80748;SDS011;70145;53.746;9.970;2023-08-06T09:19:12;5.13;;;3.55;;
80748;SDS011;70145;53.746;9.970;2023-08-06T09:21:40;5.68;;;4.57;;
80748;SDS011;70145;53.746;9.970;2023-08-06T09:24:13;6.10;;;4.40;;
80748;SDS011;70145;53.746;9.970;2023-08-06T09:26:41;7.32;;;4.38;;
80748;SDS011;70145;53.746;9.970;2023-08-06T09:29:08;5.60;;;4.32;;
80748;SDS011;70145;53.746;9.970;2023-08-06T09:31:41;7.53;;;4.60;;
80748;SDS011;70145;53.746;9.970;2023-08-06T09:34:26;6.18;;;5.50;;
80748;SDS011;70145;53.746;9.970;2023-08-06T09:36:52;5.05;;;4.43;;
80748;SDS011;70145;53.746;9.970;2023-08-06T09:39:25;5.10;;;4.32;;
80748;SDS011;70145;53.746;9.970;2023-08-06T09:41:55;5.28;;;4.53;;
80748;SDS011;70145;53.746;9.970;2023-08-06T09:44:21;5.35;;;4.15;;
80748;SDS011;70145;53.746;9.970;2023-08-06T09:46:49;6.45;;;4.32;;
80748;SDS011;70145;53.746;9.970;2023-08-06T09:49:24;6.63;;;4.22;;
80748;SDS011;70145;53.746;9.970;2023-08-06T09:51:51;6.05;;;4.75;;
80748;SDS011;70145;53.746;9.970;2023-08-06T09:54:20;6.15;;;4.68;;
80748;SDS011;70145;53.746;9.970;2023-08-06T09:56:47;5.47;;;4.15;;
80748;SDS011;70145;53.746;9.970;2023-08-06T09:59:13;6.68;;;4.90;;
80748;SDS011;70145;53.746;9.970;2023-08-06T10:01:40;5.03;;;4.53;;
80748;SDS011;70145;53.746;9.970;2023-08-06T10:04:06;5.88;;;4.38;;
80748;SDS011;70145;53.746;9.970;2023-08-06T10:06:35;5.25;;;4.20;;
80748;SDS011;70145;53.746;9.970;2023-08-06T10:09:02;7.13;;;4.38;;
80748;SDS011;70145;53.746;9.970;2023-08-06T10:11:30;4.70;;;3.72;;
80748;SDS011;70145;53.746;9.970;2023-08-06T10:16:49;5.97;;;4.20;;
80748;SDS011;70145;53.746;9.970;2023-08-06T10:19:15;6.45;;;4.25;;
80748;SDS011;70145;53.746;9.970;2023-08-06T10:21:52;5.60;;;3.97;;
80748;SDS011;70145;53.746;9.970;2023-08-06T10:24:45;5.65;;;3.58;;
80748;SDS011;70145;53.746;9.970;2023-08-06T10:29:56;4.00;;;3.53;;
80748;SDS011;70145;53.746;9.970;2023-08-06T10:32:47;3.78;;;3.33;;
80748;SDS011;70145;53.746;9.970;2023-08-06T10:38:05;4.35;;;3.28;;
80748;SDS011;70145;53.746;9.970;2023-08-06T10:40:35;5.47;;;3.67;;
80748;SDS011;70145;53.746;9.970;2023-08-06T10:43:07;5.90;;;3.75;;
80748;SDS011;70145;53.746;9.970;2023-08-06T10:45:34;7.78;;;4.57;;
80748;SDS011;70145;53.746;9.970;2023-08-06T10:48:01;5.55;;;4.10;;
80748;SDS011;70145;53.746;9.970;2023-08-06T10:50:27;5.45;;;4.30;;
80748;SDS011;70145;53.746;9.970;2023-08-06T10:52:52;5.60;;;3.70;;
80748;SDS011;70145;53.746;9.970;2023-08-06T10:55:25;6.28;;;4.20;;
80748;SDS011;70145;53.746;9.970;2023-08-06T10:57:53;5.90;;;4.05;;
80748;SDS011;70145;53.746;9.970;2023-08-06T11:00:20;8.40;;;3.92;;
80748;SDS011;70145;53.746;9.970;2023-08-06T11:02:47;5.78;;;4.57;;
80748;SDS011;70145;53.746;9.970;2023-08-06T11:05:14;5.05;;;3.90;;
80748;SDS011;70145;53.746;9.970;2023-08-06T11:07:39;5.82;;;3.70;;
80748;SDS011;70145;53.746;9.970;2023-08-06T11:10:05;4.55;;;3.95;;
80748;SDS011;70145;53.746;9.970;2023-08-06T11:12:32;6.18;;;3.50;;
80748;SDS011;70145;53.746;9.970;2023-08-06T11:14:58;5.22;;;4.13;;
80748;SDS011;70145;53.746;9.970;2023-08-06T11:17:24;5.32;;;3.83;;
80748;SDS011;70145;53.746;9.970;2023-08-06T11:19:52;5.93;;;3.88;;
80748;SDS011;70145;53.746;9.970;2023-08-06T11:22:18;5.68;;;4.20;;
80748;SDS011;70145;53.746;9.970;2023-08-06T11:24:44;6.57;;;4.13;;
80748;SDS011;70145;53.746;9.970;2023-08-06T11:27:15;5.25;;;4.18;;
80748;SDS011;70145;53.746;9.970;2023-08-06T11:29:42;6.10;;;4.10;;
80748;SDS011;70145;53.746;9.970;2023-08-06T11:32:08;6.35;;;4.50;;
80748;SDS011;70145;53.746;9.970;2023-08-06T11:34:34;5.18;;;4.53;;
80748;SDS011;70145;53.746;9.970;2023-08-06T11:37:00;6.82;;;5.80;;
80748;SDS011;70145;53.746;9.970;2023-08-06T11:39:27;6.30;;;4.50;;
80748;SDS011;70145;53.746;9.970;2023-08-06T11:41:52;4.55;;;4.05;;
80748;SDS011;70145;53.746;9.970;2023-08-06T11:44:19;6.37;;;5.73;;
80748;SDS011;70145;53.746;9.970;2023-08-06T11:46:54;5.60;;;4.18;;
80748;SDS011;70145;53.746;9.970;2023-08-06T11:52:20;4.70;;;4.20;;
80748;SDS011;70145;53.746;9.970;2023-08-06T11:54:59;6.38;;;4.60;;
80748;SDS011;70145;53.746;9.970;2023-08-06T11:57:25;7.57;;;4.50;;
80748;SDS011;70145;53.746;9.970;2023-08-06T11:59:50;6.05;;;3.75;;
80748;SDS011;70145;53.746;9.970;2023-08-06T12:02:15;4.88;;;4.10;;
80748;SDS011;70145;53.746;9.970;2023-08-06T12:07:41;6.28;;;4.43;;
80748;SDS011;70145;53.746;9.970;2023-08-06T12:10:14;6.65;;;4.55;;
80748;SDS011;70145;53.746;9.970;2023-08-06T12:12:40;5.90;;;4.47;;
80748;SDS011;70145;53.746;9.970;2023-08-06T12:15:06;6.00;;;4.05;;
80748;SDS011;70145;53.746;9.970;2023-08-06T12:17:33;5.75;;;4.28;;
80748;SDS011;70145;53.746;9.970;2023-08-06T12:19:58;6.80;;;4.03;;
80748;SDS011;70145;53.746;9.970;2023-08-06T12:22:24;7.25;;;4.97;;
80748;SDS011;70145;53.746;9.970;2023-08-06T12:24:49;8.10;;;4.78;;
80748;SDS011;70145;53.746;9.970;2023-08-06T12:27:15;7.47;;;3.85;;
80748;SDS011;70145;53.746;9.970;2023-08-06T12:29:44;6.50;;;5.20;;
80748;SDS011;70145;53.746;9.970;2023-08-06T12:32:12;3.97;;;3.47;;
80748;SDS011;70145;53.746;9.970;2023-08-06T12:34:40;4.07;;;3.67;;
80748;SDS011;70145;53.746;9.970;2023-08-06T12:37:07;6.57;;;3.88;;
80748;SDS011;70145;53.746;9.970;2023-08-06T12:39:33;4.13;;;3.72;;
80748;SDS011;70145;53.746;9.970;2023-08-06T12:42:00;4.28;;;3.63;;
80748;SDS011;70145;53.746;9.970;2023-08-06T12:44:26;4.45;;;3.33;;
80748;SDS011;70145;53.746;9.970;2023-08-06T12:46:52;5.78;;;3.38;;
80748;SDS011;70145;53.746;9.970;2023-08-06T12:49:18;5.28;;;2.72;;
80748;SDS011;70145;53.746;9.970;2023-08-06T12:51:45;4.47;;;3.00;;
80748;SDS011;70145;53.746;9.970;2023-08-06T12:54:11;4.38;;;2.65;;
80748;SDS011;70145;53.746;9.970;2023-08-06T12:56:36;3.97;;;3.17;;
80748;SDS011;70145;53.746;9.970;2023-08-06T12:59:02;4.70;;;2.53;;
80748;SDS011;70145;53.746;9.970;2023-08-06T13:01:27;3.57;;;3.27;;
80748;SDS011;70145;53.746;9.970;2023-08-06T13:03:52;3.73;;;2.60;;
80748;SDS011;70145;53.746;9.970;2023-08-06T13:06:17;4.00;;;2.80;;
80748;SDS011;70145;53.746;9.970;2023-08-06T13:08:43;3.50;;;2.10;;
80748;SDS011;70145;53.746;9.970;2023-08-06T13:11:08;2.97;;;2.35;;
80748;SDS011;70145;53.746;9.970;2023-08-06T13:13:34;3.55;;;2.17;;
80748;SDS011;70145;53.746;9.970;2023-08-06T13:15:59;4.27;;;1.93;;
80748;SDS011;70145;53.746;9.970;2023-08-06T13:18:35;2.95;;;2.35;;
80748;SDS011;70145;53.746;9.970;2023-08-06T13:21:01;3.03;;;2.10;;
80748;SDS011;70145;53.746;9.970;2023-08-06T13:23:26;5.55;;;2.13;;
80748;SDS011;70145;53.746;9.970;2023-08-06T13:25:53;5.75;;;2.60;;
80748;SDS011;70145;53.746;9.970;2023-08-06T13:28:18;2.97;;;2.45;;
80748;SDS011;70145;53.746;9.970;2023-08-06T13:30:43;3.47;;;2.10;;
80748;SDS011;70145;53.746;9.970;2023-08-06T13:33:09;3.45;;;1.80;;
80748;SDS011;70145;53.746;9.970;2023-08-06T13:35:35;2.88;;;2.00;;
80748;SDS011;70145;53.746;9.970;2023-08-06T13:38:00;3.35;;;2.40;;
80748;SDS011;70145;53.746;9.970;2023-08-06T13:40:29;3.22;;;2.22;;
80748;SDS011;70145;53.746;9.970;2023-08-06T13:42:55;2.97;;;2.30;;
80748;SDS011;70145;53.746;9.970;2023-08-06T13:45:21;2.75;;;1.85;;
80748;SDS011;70145;53.746;9.970;2023-08-06T13:47:46;2.90;;;2.25;;
80748;SDS011;70145;53.746;9.970;2023-08-06T13:50:11;2.40;;;1.60;;
80748;SDS011;70145;53.746;9.970;2023-08-06T13:52:37;4.93;;;1.70;;
80748;SDS011;70145;53.746;9.970;2023-08-06T13:55:02;2.90;;;2.30;;
80748;SDS011;70145;53.746;9.970;2023-08-06T13:57:29;2.63;;;2.40;;
80748;SDS011;70145;53.746;9.970;2023-08-06T13:59:54;3.83;;;2.03;;
80748;SDS011;70145;53.746;9.970;2023-08-06T14:02:19;2.47;;;1.90;;
80748;SDS011;70145;53.746;9.970;2023-08-06T14:04:45;2.03;;;1.30;;
80748;SDS011;70145;53.746;9.970;2023-08-06T14:07:10;1.92;;;1.45;;
80748;SDS011;70145;53.746;9.970;2023-08-06T14:09:35;2.53;;;1.60;;
80748;SDS011;70145;53.746;9.970;2023-08-06T14:12:01;3.93;;;2.27;;
80748;SDS011;70145;53.746;9.970;2023-08-06T14:14:26;2.58;;;2.35;;
80748;SDS011;70145;53.746;9.970;2023-08-06T14:16:55;3.33;;;2.13;;
80748;SDS011;70145;53.746;9.970;2023-08-06T14:19:20;2.63;;;2.38;;
80748;SDS011;70145;53.746;9.970;2023-08-06T14:21:46;4.55;;;2.60;;
80748;SDS011;70145;53.746;9.970;2023-08-06T14:24:11;3.92;;;2.10;;
80748;SDS011;70145;53.746;9.970;2023-08-06T14:26:37;3.97;;;2.17;;
80748;SDS011;70145;53.746;9.970;2023-08-06T14:29:02;2.97;;;1.90;;
80748;SDS011;70145;53.746;9.970;2023-08-06T14:31:27;2.53;;;1.60;;
80748;SDS011;70145;53.746;9.970;2023-08-06T14:33:53;2.70;;;2.10;;
80748;SDS011;70145;53.746;9.970;2023-08-06T14:36:18;2.77;;;1.80;;
80748;SDS011;70145;53.746;9.970;2023-08-06T14:38:44;2.30;;;1.85;;
80748;SDS011;70145;53.746;9.970;2023-08-06T14:41:09;3.70;;;2.28;;
80748;SDS011;70145;53.746;9.970;2023-08-06T14:43:34;2.65;;;2.17;;
80748;SDS011;70145;53.746;9.970;2023-08-06T14:46:00;2.43;;;1.90;;
80748;SDS011;70145;53.746;9.970;2023-08-06T14:48:25;5.63;;;2.30;;
80748;SDS011;70145;53.746;9.970;2023-08-06T14:50:51;3.60;;;2.20;;
80748;SDS011;70145;53.746;9.970;2023-08-06T14:53:16;4.20;;;2.20;;
80748;SDS011;70145;53.746;9.970;2023-08-06T14:55:41;2.73;;;1.80;;
80748;SDS011;70145;53.746;9.970;2023-08-06T14:58:07;2.25;;;1.77;;
80748;SDS011;70145;53.746;9.970;2023-08-06T15:00:32;4.28;;;1.83;;
80748;SDS011;70145;53.746;9.970;2023-08-06T15:02:57;2.05;;;1.48;;
80748;SDS011;70145;53.746;9.970;2023-08-06T15:05:22;2.23;;;1.70;;
80748;SDS011;70145;53.746;9.970;2023-08-06T15:07:49;2.58;;;1.70;;